Accueil
METAR-TAF:

METAR-TAF

Aéroports :

Cape Newenham, Alaska, États-Unis

latitude: 58-39N, longitude: 162-04W, altitude: 165 m

Observation

Le bulletin a été fait il y a 22 minutes, à 13:30 UTC
Vent 26 kt de est/sud-est
Température -9°C
Humidité 79%
Pression 1005 hPa
Visibilité: 3.2 km
Nuages épars à une hauteur de 100 ft
Nuages fragmentés à une hauteur de 6000 ft
Nuages fragmentés à une hauteur de 7500 ft
neige faible, brume

METAR: PAEH 291330Z AUTO 11026KT 2SM -SN BR SCT001 BKN060 BKN075 M09/M12 A2967 RMK AO2 PK WND 10032/1306 SLP064

Heure: 04:52 (13:52 UTC)


TAF: absent

Observations et prévisions météorologiques de plus de 4000 aéroports (messages METAR et TAF).

Les stations disponibles sont représentées par des disques jaunes et rouges sur la carte.

Passer la souris dessus pour voir le nom de la station.

Cliquer dessus pour voir les observations et prévisions météorologiques.

Pour changer de carte: cliquez sur les boutons verts avec une croix noire pour zoomer, sur le bouton vert avec un tiret pour effectuer un zoom arrière, ou sur les flèches vertes pour les cartes adjacentes.


METAR-TAF: